createdAt,value
2019-01-13T00:02:29.797Z,94689.37
2019-01-13T00:05:01.140Z,94684.10
2019-01-13T00:07:32.396Z,94676.79
2019-01-13T00:10:03.880Z,94687.38
2019-01-13T00:12:35.605Z,94680.59
2019-01-13T00:15:07.632Z,94685.19
2019-01-13T00:17:39.060Z,94690.50
2019-01-13T00:20:10.637Z,94693.98
2019-01-13T00:22:41.874Z,94696.53
2019-01-13T00:25:13.216Z,94689.33
2019-01-13T00:27:44.246Z,94694.61
2019-01-13T00:30:19.368Z,94690.98
2019-01-13T00:32:48.997Z,94693.27
2019-01-13T00:35:20.277Z,94691.30
2019-01-13T00:37:51.497Z,94692.43
2019-01-13T00:40:22.894Z,94693.92
2019-01-13T00:42:54.062Z,94690.25
2019-01-13T00:45:25.256Z,94679.63
2019-01-13T00:47:56.538Z,94687.91
2019-01-13T00:50:27.756Z,94675.30
2019-01-13T00:52:58.911Z,94672.48
2019-01-13T00:55:30.112Z,94668.69
2019-01-13T00:58:01.505Z,94666.31
2019-01-13T01:00:32.727Z,94667.94
2019-01-13T01:03:05.452Z,94665.69
2019-01-13T01:05:37.669Z,94668.38
2019-01-13T01:08:09.420Z,94664.55
2019-01-13T01:10:40.759Z,94667.44
2019-01-13T01:13:12.037Z,94661.22
2019-01-13T01:15:43.258Z,94658.17
2019-01-13T01:18:14.505Z,94658.74
2019-01-13T01:20:45.864Z,94654.97
2019-01-13T01:23:17.063Z,94646.95
2019-01-13T01:25:49.667Z,94650.95
2019-01-13T01:28:20.933Z,94639.97
2019-01-13T01:30:52.239Z,94639.23
2019-01-13T01:33:26.125Z,94630.09
2019-01-13T01:35:57.531Z,94630.43
2019-01-13T01:38:28.842Z,94625.70
2019-01-13T01:40:59.996Z,94626.05
2019-01-13T01:43:31.268Z,94617.75
2019-01-13T01:46:03.737Z,94617.45
2019-01-13T01:48:34.870Z,94611.11
2019-01-13T01:51:06.183Z,94609.51
2019-01-13T01:53:37.278Z,94603.45
2019-01-13T01:56:09.842Z,94604.06
2019-01-13T01:58:41.144Z,94593.89
2019-01-13T02:01:12.414Z,94588.14
2019-01-13T02:03:43.568Z,94587.51
2019-01-13T02:06:14.865Z,94588.80
2019-01-13T02:08:46.155Z,94581.47
2019-01-13T02:11:17.428Z,94576.53
2019-01-13T02:13:49.534Z,94579.55
2019-01-13T02:16:20.796Z,94580.19
2019-01-13T02:18:52.173Z,94580.83
2019-01-13T02:21:23.319Z,94575.39
2019-01-13T02:23:54.504Z,94577.32
2019-01-13T02:26:25.892Z,94564.09
2019-01-13T02:28:57.151Z,94561.08
2019-01-13T02:31:28.431Z,94560.44
2019-01-13T02:33:59.726Z,94563.15
2019-01-13T02:36:30.890Z,94561.41
2019-01-13T02:39:02.146Z,94561.70
2019-01-13T02:41:34.880Z,94554.36
2019-01-13T02:44:06.375Z,94556.77
2019-01-13T02:46:37.672Z,94551.84
2019-01-13T02:49:08.686Z,94557.88
2019-01-13T02:51:39.996Z,94555.04
2019-01-13T02:54:11.213Z,94562.36
2019-01-13T02:56:43.999Z,94556.28
2019-01-13T02:59:16.341Z,94561.41
2019-01-13T03:01:49.086Z,94562.98
2019-01-13T03:04:20.196Z,94564.25
2019-01-13T03:06:51.286Z,94567.59
2019-01-13T03:09:22.714Z,94565.70
2019-01-13T03:11:53.967Z,94571.92
2019-01-13T03:14:25.274Z,94567.44
2019-01-13T03:16:56.560Z,94555.31
2019-01-13T03:19:27.728Z,94563.62
2019-01-13T03:21:59.270Z,94563.27
2019-01-13T03:24:30.659Z,94564.89
2019-01-13T03:27:02.022Z,94559.48
2019-01-13T03:29:33.256Z,94560.28
2019-01-13T03:32:04.703Z,94563.47
2019-01-13T03:34:35.900Z,94559.97
2019-01-13T03:37:07.223Z,94563.78
2019-01-13T03:39:38.586Z,94558.68
2019-01-13T03:42:09.939Z,94565.20
2019-01-13T03:44:41.203Z,94563.64
2019-01-13T03:47:12.468Z,94566.47
2019-01-13T03:49:43.693Z,94563.44
2019-01-13T03:52:14.991Z,94568.70
2019-01-13T03:54:46.259Z,94572.55
2019-01-13T03:57:17.435Z,94570.12
2019-01-13T03:59:48.670Z,94570.94
2019-01-13T04:02:20.041Z,94570.62
2019-01-13T04:04:51.269Z,94576.98
2019-01-13T04:07:22.615Z,94578.73
2019-01-13T04:09:53.909Z,94574.94
2019-01-13T04:12:25.080Z,94576.68
2019-01-13T04:14:56.255Z,94580.16
2019-01-13T04:17:28.405Z,94580.81
2019-01-13T04:19:59.746Z,94580.81
2019-01-13T04:22:31.230Z,94580.96
2019-01-13T04:25:02.340Z,94581.73
2019-01-13T04:27:33.711Z,94580.96
2019-01-13T04:30:05.958Z,94583.34
2019-01-13T04:32:37.286Z,94587.49
2019-01-13T04:35:09.271Z,94587.16
2019-01-13T04:37:40.632Z,94587.16
2019-01-13T04:40:11.943Z,94580.94
2019-01-13T04:42:43.355Z,94580.94
2019-01-13T04:45:14.780Z,94580.78
2019-01-13T04:47:45.910Z,94586.33
2019-01-13T04:50:17.283Z,94582.53
2019-01-13T04:52:48.580Z,94579.49
2019-01-13T04:55:19.829Z,94569.45
2019-01-13T04:57:51.138Z,94574.73
2019-01-13T05:00:22.448Z,94566.77
2019-01-13T05:02:53.824Z,94566.77
2019-01-13T05:05:24.937Z,94569.63
2019-01-13T05:07:56.297Z,94557.85
2019-01-13T05:10:29.741Z,94572.81
2019-01-13T05:13:01.018Z,94562.95
2019-01-13T05:15:32.349Z,94564.34
2019-01-13T05:18:03.686Z,94565.63
2019-01-13T05:20:35.114Z,94560.56
2019-01-13T05:23:06.315Z,94559.45
2019-01-13T05:25:37.510Z,94556.55
2019-01-13T05:28:08.698Z,94555.90
2019-01-13T05:30:40.043Z,94556.25
2019-01-13T05:33:11.444Z,94551.80
2019-01-13T05:35:42.690Z,94559.10
2019-01-13T05:38:13.933Z,94556.88
2019-01-13T05:40:45.180Z,94553.68
2019-01-13T05:43:16.295Z,94548.44
2019-01-13T05:45:47.481Z,94545.75
2019-01-13T05:48:18.669Z,94543.83
2019-01-13T05:50:50.017Z,94537.16
2019-01-13T05:53:21.341Z,94537.48
2019-01-13T05:55:52.466Z,94533.64
2019-01-13T05:58:24.742Z,94532.99
2019-01-13T06:00:55.837Z,94529.17
2019-01-13T06:03:27.214Z,94522.80
2019-01-13T06:05:58.538Z,94523.91
2019-01-13T06:08:29.790Z,94529.48
2019-01-13T06:11:01.120Z,94529.34
2019-01-13T06:13:32.372Z,94524.42
2019-01-13T06:16:04.004Z,94533.98
2019-01-13T06:18:35.304Z,94533.98
2019-01-13T06:21:06.574Z,94539.38
2019-01-13T06:23:37.870Z,94535.41
2019-01-13T06:26:09.141Z,94533.33
2019-01-13T06:28:40.415Z,94537.30
2019-01-13T06:31:11.538Z,94525.33
2019-01-13T06:33:42.945Z,94525.47
2019-01-13T06:36:14.422Z,94516.99
2019-01-13T06:38:45.549Z,94516.99
2019-01-13T06:41:16.825Z,94513.62
2019-01-13T06:43:48.124Z,94517.73
2019-01-13T06:46:19.616Z,94512.73
2019-01-13T06:48:50.852Z,94507.23
2019-01-13T06:51:22.084Z,94520.79
2019-01-13T06:53:53.429Z,94524.25
2019-01-13T06:56:24.806Z,94520.73
2019-01-13T06:58:56.217Z,94518.59
2019-01-13T07:01:27.409Z,94518.59
2019-01-13T07:03:58.700Z,94504.22
2019-01-13T07:06:30.005Z,94504.22
2019-01-13T07:09:01.252Z,94497.73
2019-01-13T07:11:32.537Z,94496.08
2019-01-13T07:14:03.723Z,94499.52
2019-01-13T07:16:37.216Z,94500.32
2019-01-13T07:19:08.467Z,94504.95
2019-01-13T07:21:39.678Z,94498.80
2019-01-13T07:24:11.053Z,94498.80
2019-01-13T07:26:42.312Z,94501.34
2019-01-13T07:29:13.512Z,94498.66
2019-01-13T07:31:44.782Z,94496.92
2019-01-13T07:34:16.088Z,94492.52
2019-01-13T07:36:47.455Z,94500.24
2019-01-13T07:39:18.585Z,94500.59
2019-01-13T07:41:49.801Z,94500.92
2019-01-13T07:44:21.034Z,94496.72
2019-01-13T07:46:52.452Z,94508.36
2019-01-13T07:49:23.630Z,94504.97
2019-01-13T07:51:56.513Z,94504.97
2019-01-13T07:54:30.246Z,94510.97
2019-01-13T07:57:02.785Z,94507.08
2019-01-13T07:59:35.835Z,94507.08
2019-01-13T08:02:07.234Z,94514.16
2019-01-13T08:04:38.469Z,94521.69
2019-01-13T08:07:09.768Z,94516.72
2019-01-13T08:09:41.041Z,94517.05
2019-01-13T08:12:12.312Z,94517.05
2019-01-13T08:14:43.466Z,94526.89
2019-01-13T08:17:14.870Z,94521.45
2019-01-13T08:19:46.080Z,94522.11
2019-01-13T08:22:17.381Z,94523.48
2019-01-13T08:24:48.822Z,94490.14
2019-01-13T08:27:20.153Z,94525.86
2019-01-13T08:29:51.431Z,94509.44
2019-01-13T08:32:25.099Z,94531.38
2019-01-13T08:34:55.490Z,94531.38
2019-01-13T08:37:26.706Z,94534.23
2019-01-13T08:39:57.897Z,94530.38
2019-01-13T08:42:29.111Z,94530.38
2019-01-13T08:45:00.450Z,94526.04
2019-01-13T08:47:31.537Z,94528.60
2019-01-13T08:50:03.028Z,94523.67
2019-01-13T08:52:34.525Z,94515.84
2019-01-13T08:55:06.780Z,94507.78
2019-01-13T08:57:38.080Z,94507.78
2019-01-13T09:00:31.551Z,94503.08
2019-01-13T09:03:03.936Z,94503.08
2019-01-13T09:05:35.272Z,94502.55
2019-01-13T09:08:07.597Z,94490.98
2019-01-13T09:10:39.056Z,94486.42
2019-01-13T09:13:10.264Z,94479.45
2019-01-13T09:15:41.641Z,94475.69
2019-01-13T09:18:13.226Z,94475.69
2019-01-13T09:20:44.366Z,94423.25
2019-01-13T09:23:15.669Z,94444.95
2019-01-13T09:25:46.911Z,94440.74
2019-01-13T09:28:18.231Z,94440.74
2019-01-13T09:30:49.456Z,94431.48
2019-01-13T09:33:20.752Z,94427.51
2019-01-13T09:35:52.138Z,94429.19
2019-01-13T09:38:23.385Z,94417.80
2019-01-13T09:40:55.632Z,94421.41
2019-01-13T09:43:26.937Z,94412.28
2019-01-13T09:45:58.102Z,94410.97
2019-01-13T09:48:29.424Z,94395.96
2019-01-13T09:51:00.797Z,94395.96
2019-01-13T09:53:31.937Z,94391.48
2019-01-13T09:56:04.310Z,94387.28
2019-01-13T09:58:35.490Z,94391.89
2019-01-13T10:01:06.817Z,94392.63
2019-01-13T10:03:38.025Z,94386.82
2019-01-13T10:06:10.133Z,94368.72
2019-01-13T10:08:41.459Z,94366.80
2019-01-13T10:11:12.590Z,94355.88
2019-01-13T10:14:28.119Z,94357.55
2019-01-13T10:20:26.925Z,94353.52
2019-01-13T10:25:46.324Z,94357.67
2019-01-13T10:28:17.768Z,94349.43
2019-01-13T10:30:49.182Z,94352.00
2019-01-13T10:33:20.430Z,94348.77
2019-01-13T10:35:51.795Z,94342.01
2019-01-13T10:38:23.000Z,94336.35
2019-01-13T10:40:54.438Z,94334.92
2019-01-13T10:43:26.615Z,94336.28
2019-01-13T10:45:57.963Z,94330.87
2019-01-13T10:48:30.417Z,94330.06
2019-01-13T10:51:01.798Z,94323.69
2019-01-13T10:53:34.195Z,94329.40
2019-01-13T10:56:05.530Z,94328.38
2019-01-13T10:58:36.721Z,94322.25
2019-01-13T11:01:07.831Z,94310.50
2019-01-13T11:03:39.128Z,94313.67
2019-01-13T11:06:10.466Z,94307.45
2019-01-13T11:08:41.678Z,94306.73
2019-01-13T11:11:12.790Z,94298.61
2019-01-13T11:13:43.946Z,94296.06
2019-01-13T11:16:15.314Z,94301.70
2019-01-13T11:18:46.544Z,94299.56
2019-01-13T11:21:17.867Z,94291.24
2019-01-13T11:23:49.022Z,94291.80
2019-01-13T11:26:20.196Z,94293.33
2019-01-13T11:28:51.482Z,94286.80
2019-01-13T11:31:22.822Z,94285.70
2019-01-13T11:33:54.112Z,94289.18
2019-01-13T11:36:25.344Z,94291.48
2019-01-13T11:38:56.784Z,94292.83
2019-01-13T11:41:27.925Z,94291.52
2019-01-13T11:43:59.169Z,94287.98
2019-01-13T11:46:30.604Z,94300.90
2019-01-13T11:49:01.860Z,94296.56
2019-01-13T11:51:32.977Z,94294.44
2019-01-13T11:54:04.287Z,94298.70
2019-01-13T11:56:35.636Z,94296.70
2019-01-13T11:59:06.928Z,94294.77
2019-01-13T12:01:38.163Z,94292.97
2019-01-13T12:04:09.479Z,94294.71
2019-01-13T12:06:40.691Z,94292.16
2019-01-13T12:09:11.850Z,94282.98
2019-01-13T12:11:43.072Z,94299.32
2019-01-13T12:14:14.457Z,94300.83
2019-01-13T12:16:45.810Z,94298.56
2019-01-13T12:19:16.945Z,94290.25
2019-01-13T12:21:48.259Z,94290.25
2019-01-13T12:24:19.626Z,94295.70
2019-01-13T12:26:51.000Z,94295.73
2019-01-13T12:29:22.193Z,94291.91
2019-01-13T12:31:53.301Z,94288.44
2019-01-13T12:34:24.746Z,94288.44
2019-01-13T12:36:56.030Z,94282.49
2019-01-13T12:39:27.313Z,94282.49
2019-01-13T12:41:58.533Z,94288.23
2019-01-13T12:44:29.767Z,94288.77
2019-01-13T12:47:01.306Z,94288.77
2019-01-13T12:49:32.698Z,94281.59
2019-01-13T12:52:04.021Z,94282.41
2019-01-13T12:54:35.190Z,94281.30
2019-01-13T12:57:06.249Z,94277.03
2019-01-13T12:59:37.607Z,94272.72
2019-01-13T13:02:08.998Z,94272.72
2019-01-13T13:04:40.339Z,94266.42
2019-01-13T13:07:11.542Z,94261.24
2019-01-13T13:09:42.793Z,94260.06
2019-01-13T13:12:13.796Z,94250.04
2019-01-13T13:14:44.903Z,94249.61
2019-01-13T13:17:16.131Z,94244.78
2019-01-13T13:19:47.409Z,94247.88
2019-01-13T13:22:18.557Z,94235.23
2019-01-13T13:24:49.848Z,94235.58
2019-01-13T13:27:21.137Z,94234.69
2019-01-13T13:29:52.575Z,94230.03
2019-01-13T13:32:23.863Z,94240.30
2019-01-13T13:34:55.850Z,94240.73
2019-01-13T13:37:27.036Z,94229.01
2019-01-13T13:39:58.256Z,94221.88
2019-01-13T13:42:30.660Z,94212.48
2019-01-13T13:45:03.026Z,94203.90
2019-01-13T13:47:34.354Z,94197.78
2019-01-13T13:50:07.884Z,94192.42
2019-01-13T13:52:39.342Z,94204.98
2019-01-13T13:55:11.294Z,94203.57
2019-01-13T13:57:42.777Z,94197.47
2019-01-13T14:00:20.547Z,94201.63
2019-01-13T14:02:51.959Z,94196.55
2019-01-13T14:05:24.610Z,94199.77
2019-01-13T14:07:57.152Z,94202.93
2019-01-13T14:10:39.914Z,94193.80
2019-01-13T14:13:11.286Z,94198.50
2019-01-13T14:15:42.681Z,94195.16
2019-01-13T14:18:15.994Z,94200.00
2019-01-13T14:20:47.226Z,94200.00
2019-01-13T14:23:18.504Z,94193.69
2019-01-13T14:25:49.818Z,94200.45
2019-01-13T14:28:21.157Z,94204.19
2019-01-13T14:30:52.468Z,94209.73
2019-01-13T14:33:25.347Z,94200.84
2019-01-13T14:35:56.809Z,94208.15
2019-01-13T14:38:28.083Z,94204.08
2019-01-13T14:40:59.677Z,94209.73
2019-01-13T14:43:30.825Z,94207.55
2019-01-13T14:46:02.293Z,94202.11
2019-01-13T14:48:33.784Z,94207.36
2019-01-13T14:51:05.255Z,94203.10
2019-01-13T14:53:36.602Z,94203.10
2019-01-13T14:56:07.909Z,94203.10
2019-01-13T14:58:39.124Z,94195.48
2019-01-13T15:01:10.684Z,94194.27
2019-01-13T15:03:41.898Z,94194.27
2019-01-13T15:06:13.087Z,94192.98
2019-01-13T15:08:44.356Z,94203.05
2019-01-13T15:11:15.808Z,94195.16
2019-01-13T15:13:47.034Z,94194.86
2019-01-13T15:16:18.323Z,94200.18
2019-01-13T15:18:49.430Z,94196.81
2019-01-13T15:21:20.833Z,94198.45
2019-01-13T15:23:52.092Z,94198.45
2019-01-13T15:26:23.290Z,94224.06
2019-01-13T15:28:54.678Z,94197.70
2019-01-13T15:31:25.986Z,94197.70
2019-01-13T15:33:57.610Z,94196.08
2019-01-13T15:36:28.961Z,94192.36
2019-01-13T15:39:00.234Z,94187.08
2019-01-13T15:41:31.571Z,94188.45
2019-01-13T15:44:02.699Z,94190.53
2019-01-13T15:46:34.089Z,94190.53
2019-01-13T15:49:05.590Z,94187.70
2019-01-13T15:51:36.943Z,94187.70
2019-01-13T15:54:08.418Z,94187.13
2019-01-13T15:56:39.684Z,94186.56
2019-01-13T15:59:10.993Z,94187.30
2019-01-13T16:01:42.406Z,94187.30
2019-01-13T16:04:14.751Z,94189.15
2019-01-13T16:06:46.141Z,94189.15
2019-01-13T16:09:17.437Z,94193.73
2019-01-13T16:11:48.666Z,94191.04
2019-01-13T16:14:20.117Z,94179.57
2019-01-13T16:16:51.312Z,94179.57
2019-01-13T16:19:22.373Z,94179.17
2019-01-13T16:21:53.823Z,94179.17
2019-01-13T16:24:25.149Z,94181.04
2019-01-13T16:26:56.354Z,94184.64
2019-01-13T16:29:27.755Z,94179.70
2019-01-13T16:31:58.945Z,94179.70
2019-01-13T16:34:30.201Z,94185.92
2019-01-13T16:37:01.483Z,94180.37
2019-01-13T16:39:32.696Z,94178.78
2019-01-13T16:42:04.121Z,94172.07
2019-01-13T16:44:35.163Z,94165.30
2019-01-13T16:47:08.657Z,94163.70
2019-01-13T16:49:40.030Z,94163.70
2019-01-13T16:52:11.533Z,94161.23
2019-01-13T16:54:42.910Z,94161.23
2019-01-13T16:57:14.370Z,94163.23
2019-01-13T16:59:45.796Z,94166.00
2019-01-13T17:02:17.080Z,94161.98
2019-01-13T17:04:48.316Z,94161.98
2019-01-13T17:07:19.603Z,94152.73
2019-01-13T17:09:50.899Z,94147.95
2019-01-13T17:12:22.037Z,94146.09
2019-01-13T17:14:53.215Z,94148.28
2019-01-13T17:17:24.532Z,94148.28
2019-01-13T17:19:55.742Z,94143.77
2019-01-13T17:22:27.046Z,94143.77
2019-01-13T17:24:58.205Z,94143.61
2019-01-13T17:27:29.476Z,94148.13
2019-01-13T17:30:00.742Z,94148.13
2019-01-13T17:32:32.026Z,94152.27
2019-01-13T17:35:03.416Z,94153.94
2019-01-13T17:37:34.764Z,94154.58
2019-01-13T17:40:07.525Z,94156.97
2019-01-13T17:42:39.032Z,94156.97
2019-01-13T17:45:13.071Z,94149.59
2019-01-13T17:47:44.593Z,94138.80
2019-01-13T17:50:17.618Z,94145.53
2019-01-13T17:52:48.946Z,94139.52
2019-01-13T17:55:24.671Z,94138.42
2019-01-13T17:57:55.994Z,94141.08
2019-01-13T18:00:35.728Z,94140.48
2019-01-13T18:03:07.615Z,94145.91
2019-01-13T18:05:38.956Z,94146.84
2019-01-13T18:08:10.025Z,94146.84
2019-01-13T18:10:41.178Z,94134.86
2019-01-13T18:13:12.591Z,94137.47
2019-01-13T18:15:44.012Z,94137.47
2019-01-13T18:18:15.282Z,94133.42
2019-01-13T18:20:46.296Z,94136.56
2019-01-13T18:23:17.480Z,94144.58
2019-01-13T18:25:48.821Z,94144.58
2019-01-13T18:28:20.178Z,94136.12
2019-01-13T18:30:51.586Z,94133.23
2019-01-13T18:33:22.779Z,94134.65
2019-01-13T18:35:54.128Z,94134.65
2019-01-13T18:38:25.673Z,94131.17
2019-01-13T18:40:56.932Z,94131.17
2019-01-13T18:43:28.264Z,94128.40
2019-01-13T18:45:59.600Z,94120.56
2019-01-13T18:48:31.034Z,94128.16
2019-01-13T18:51:02.379Z,94128.16
2019-01-13T18:53:33.769Z,94123.43
2019-01-13T18:56:05.243Z,94128.92
2019-01-13T18:58:36.402Z,94120.47
2019-01-13T19:01:07.859Z,94112.39
2019-01-13T19:03:39.104Z,94120.81
2019-01-13T19:06:12.846Z,94119.92
2019-01-13T19:08:44.343Z,94124.41
2019-01-13T19:11:31.022Z,94123.48
2019-01-13T19:14:20.218Z,94116.56
2019-01-13T19:17:00.871Z,94114.45
2019-01-13T19:19:42.028Z,94114.45
2019-01-13T19:22:13.179Z,94112.05
2019-01-13T19:24:44.526Z,94114.29
2019-01-13T19:27:15.845Z,94105.27
2019-01-13T19:29:46.940Z,94109.70
2019-01-13T19:32:18.162Z,94101.67
2019-01-13T19:34:49.475Z,94107.46
2019-01-13T19:37:20.910Z,94091.64
2019-01-13T19:39:52.225Z,94092.13
2019-01-13T19:42:24.246Z,94093.14
2019-01-13T19:44:55.540Z,94091.67
2019-01-13T19:47:26.832Z,94089.65
2019-01-13T19:49:58.061Z,94090.65
2019-01-13T19:52:29.366Z,94085.75
2019-01-13T19:55:00.689Z,94085.45
2019-01-13T19:57:32.002Z,94085.95
2019-01-13T20:00:03.213Z,94083.39
2019-01-13T20:02:34.650Z,94070.98
2019-01-13T20:05:11.772Z,94070.98
2019-01-13T20:07:39.629Z,94069.66
2019-01-13T20:10:11.083Z,94062.13
2019-01-13T20:12:42.218Z,94059.44
2019-01-13T20:15:14.365Z,94071.87
2019-01-13T20:17:45.550Z,94071.87
2019-01-13T20:20:17.373Z,94064.95
2019-01-13T20:22:48.521Z,94063.80
2019-01-13T20:25:19.844Z,94060.52
2019-01-13T20:27:52.775Z,94052.11
2019-01-13T20:30:26.525Z,94046.81
2019-01-13T20:32:58.129Z,94034.73
2019-01-13T20:35:30.620Z,94034.73
2019-01-13T20:38:02.083Z,94036.66
2019-01-13T20:40:33.601Z,94035.08
2019-01-13T20:43:05.289Z,94035.08
2019-01-13T20:45:39.568Z,94030.50
2019-01-13T20:48:10.814Z,94033.36
2019-01-13T20:50:42.130Z,94021.56
2019-01-13T20:53:13.675Z,94021.56
2019-01-13T20:55:45.135Z,94022.03
2019-01-13T20:58:17.507Z,94022.03
2019-01-13T21:00:49.198Z,94011.50
2019-01-13T21:03:20.703Z,94011.58
2019-01-13T21:05:52.264Z,94015.23
2019-01-13T21:08:23.652Z,93996.33
2019-01-13T21:10:55.077Z,94000.95
2019-01-13T21:13:26.242Z,94000.95
2019-01-13T21:15:58.499Z,94000.75
2019-01-13T21:18:29.807Z,93993.27
2019-01-13T21:21:01.173Z,94000.82
2019-01-13T21:23:32.229Z,93986.09
2019-01-13T21:26:03.563Z,93979.81
2019-01-13T21:28:34.846Z,93980.44
2019-01-13T21:31:06.217Z,93977.71
2019-01-13T21:33:37.594Z,93970.30
2019-01-13T21:36:08.779Z,93969.20
2019-01-13T21:38:40.104Z,93966.71
2019-01-13T21:41:11.391Z,93961.34
2019-01-13T21:43:42.592Z,93957.41
2019-01-13T21:46:14.997Z,93953.09
2019-01-13T21:48:46.187Z,93954.67
2019-01-13T21:51:17.367Z,93961.12
2019-01-13T21:53:48.621Z,93951.46
2019-01-13T21:56:19.809Z,93946.80
2019-01-13T21:58:51.023Z,93944.59
2019-01-13T22:01:22.378Z,93932.53
2019-01-13T22:03:53.603Z,93920.61
2019-01-13T22:06:24.864Z,93911.51
2019-01-13T22:08:56.432Z,93907.06
2019-01-13T22:11:27.892Z,93910.06
2019-01-13T22:13:59.168Z,93913.22
2019-01-13T22:16:30.762Z,93909.55
2019-01-13T22:19:02.250Z,93905.91
2019-01-13T22:21:33.440Z,93898.20
2019-01-13T22:24:05.859Z,93895.66
2019-01-13T22:26:37.117Z,93895.06
2019-01-13T22:29:08.381Z,93885.52
2019-01-13T22:31:39.725Z,93880.68
2019-01-13T22:34:11.096Z,93872.47
2019-01-13T22:36:42.355Z,93878.70
2019-01-13T22:39:13.775Z,93869.05
2019-01-13T22:41:45.277Z,93867.55
2019-01-13T22:44:16.557Z,93858.23
2019-01-13T22:46:48.039Z,93855.95
2019-01-13T22:49:19.237Z,93857.22
2019-01-13T22:51:50.606Z,93859.56
2019-01-13T22:54:21.854Z,93850.14
2019-01-13T22:56:53.224Z,93845.92
2019-01-13T22:59:24.334Z,93835.94
2019-01-13T23:01:55.740Z,93837.45
2019-01-13T23:04:27.002Z,93820.94
2019-01-13T23:06:58.387Z,93818.15
2019-01-13T23:09:29.438Z,93830.03
2019-01-13T23:12:00.752Z,93824.72
2019-01-13T23:14:32.218Z,93816.93
2019-01-13T23:17:03.463Z,93811.77
2019-01-13T23:19:34.698Z,93805.02
2019-01-13T23:22:06.082Z,93814.95
2019-01-13T23:24:37.310Z,93813.47
2019-01-13T23:27:08.574Z,93804.92
2019-01-13T23:29:39.833Z,93806.91
2019-01-13T23:32:11.249Z,93806.40
2019-01-13T23:34:42.559Z,93796.88
2019-01-13T23:37:13.758Z,93804.16
2019-01-13T23:39:44.990Z,93798.10
2019-01-13T23:42:16.381Z,93795.55
2019-01-13T23:44:47.575Z,93794.03
2019-01-13T23:47:18.890Z,93792.35
2019-01-13T23:49:50.138Z,93791.88
2019-01-13T23:52:21.336Z,93796.23
2019-01-13T23:54:52.561Z,93794.27
2019-01-13T23:57:23.826Z,93791.50
2019-01-13T23:59:55.389Z,93789.84
